sensor_id;sensor_type;location;lat;lon;timestamp;pressure;altitude;pressure_sealevel;temperature;humidity
23616;BME280;11985;49.404;7.734;2022-07-30T00:01:57;97452.22;;;15.81;69.60
23616;BME280;11985;49.404;7.734;2022-07-30T00:04:00;97452.38;;;15.75;69.79
23616;BME280;11985;49.404;7.734;2022-07-30T00:06:02;97447.75;;;15.70;69.87
23616;BME280;11985;49.404;7.734;2022-07-30T00:08:03;97444.19;;;15.65;70.24
23616;BME280;11985;49.404;7.734;2022-07-30T00:10:05;97444.28;;;15.58;70.31
23616;BME280;11985;49.404;7.734;2022-07-30T00:12:08;97440.72;;;15.52;70.44
23616;BME280;11985;49.404;7.734;2022-07-30T00:14:10;97446.16;;;15.46;70.73
23616;BME280;11985;49.404;7.734;2022-07-30T00:16:12;97434.38;;;15.42;70.87
23616;BME280;11985;49.404;7.734;2022-07-30T00:18:14;97428.75;;;15.38;71.01
23616;BME280;11985;49.404;7.734;2022-07-30T00:20:17;97431.50;;;15.31;71.13
23616;BME280;11985;49.404;7.734;2022-07-30T00:22:18;97421.59;;;15.27;71.29
23616;BME280;11985;49.404;7.734;2022-07-30T00:24:20;97430.25;;;15.22;71.37
23616;BME280;11985;49.404;7.734;2022-07-30T00:26:22;97425.88;;;15.16;71.70
23616;BME280;11985;49.404;7.734;2022-07-30T00:28:24;97435.31;;;15.12;71.83
23616;BME280;11985;49.404;7.734;2022-07-30T00:30:26;97433.34;;;15.08;72.07
23616;BME280;11985;49.404;7.734;2022-07-30T00:32:27;97434.63;;;15.05;72.15
23616;BME280;11985;49.404;7.734;2022-07-30T00:34:29;97433.59;;;15.06;72.34
23616;BME280;11985;49.404;7.734;2022-07-30T00:36:32;97431.13;;;15.04;72.51
23616;BME280;11985;49.404;7.734;2022-07-30T00:38:33;97426.06;;;15.03;72.56
23616;BME280;11985;49.404;7.734;2022-07-30T00:40:35;97424.47;;;15.02;72.70
23616;BME280;11985;49.404;7.734;2022-07-30T00:42:40;97421.25;;;15.00;72.71
23616;BME280;11985;49.404;7.734;2022-07-30T00:44:42;97421.69;;;14.97;73.08
23616;BME280;11985;49.404;7.734;2022-07-30T00:46:44;97421.56;;;14.92;73.00
23616;BME280;11985;49.404;7.734;2022-07-30T00:48:45;97418.34;;;14.90;73.20
23616;BME280;11985;49.404;7.734;2022-07-30T00:50:47;97421.91;;;14.84;73.40
23616;BME280;11985;49.404;7.734;2022-07-30T00:52:50;97423.97;;;14.82;73.56
23616;BME280;11985;49.404;7.734;2022-07-30T00:54:52;97424.88;;;14.75;73.77
23616;BME280;11985;49.404;7.734;2022-07-30T00:56:53;97422.09;;;14.70;73.91
23616;BME280;11985;49.404;7.734;2022-07-30T00:58:55;97421.97;;;14.65;74.21
23616;BME280;11985;49.404;7.734;2022-07-30T01:00:57;97427.16;;;14.60;74.46
23616;BME280;11985;49.404;7.734;2022-07-30T01:02:58;97428.44;;;14.58;74.53
23616;BME280;11985;49.404;7.734;2022-07-30T01:05:00;97422.75;;;14.54;74.84
23616;BME280;11985;49.404;7.734;2022-07-30T01:07:02;97423.56;;;14.55;74.89
23616;BME280;11985;49.404;7.734;2022-07-30T01:09:05;97421.16;;;14.53;75.04
23616;BME280;11985;49.404;7.734;2022-07-30T01:11:07;97420.72;;;14.56;75.21
23616;BME280;11985;49.404;7.734;2022-07-30T01:13:09;97419.69;;;14.57;75.29
23616;BME280;11985;49.404;7.734;2022-07-30T01:15:10;97423.56;;;14.55;75.30
23616;BME280;11985;49.404;7.734;2022-07-30T01:17:12;97431.75;;;14.53;75.39
23616;BME280;11985;49.404;7.734;2022-07-30T01:19:23;97426.13;;;14.49;75.55
23616;BME280;11985;49.404;7.734;2022-07-30T01:21:57;97427.38;;;14.47;75.53
23616;BME280;11985;49.404;7.734;2022-07-30T01:24:14;97426.97;;;14.43;75.63
23616;BME280;11985;49.404;7.734;2022-07-30T01:26:22;97429.50;;;14.38;75.72
23616;BME280;11985;49.404;7.734;2022-07-30T01:28:27;97432.38;;;14.37;75.77
23616;BME280;11985;49.404;7.734;2022-07-30T01:30:33;97428.44;;;14.27;75.89
23616;BME280;11985;49.404;7.734;2022-07-30T01:32:39;97434.63;;;14.21;75.96
23616;BME280;11985;49.404;7.734;2022-07-30T01:34:43;97434.63;;;14.21;76.04
23616;BME280;11985;49.404;7.734;2022-07-30T01:36:46;97436.69;;;14.19;76.17
23616;BME280;11985;49.404;7.734;2022-07-30T01:38:50;97429.41;;;14.15;76.17
23616;BME280;11985;49.404;7.734;2022-07-30T01:40:52;97428.59;;;14.14;76.24
23616;BME280;11985;49.404;7.734;2022-07-30T01:42:58;97431.72;;;14.11;76.30
23616;BME280;11985;49.404;7.734;2022-07-30T01:45:02;97431.56;;;14.06;76.47
23616;BME280;11985;49.404;7.734;2022-07-30T01:47:05;97434.22;;;14.06;76.43
23616;BME280;11985;49.404;7.734;2022-07-30T01:49:10;97432.00;;;14.03;76.68
23616;BME280;11985;49.404;7.734;2022-07-30T01:51:12;97431.66;;;13.99;76.64
23616;BME280;11985;49.404;7.734;2022-07-30T01:53:21;97436.00;;;13.94;76.92
23616;BME280;11985;49.404;7.734;2022-07-30T01:55:27;97434.03;;;13.89;76.95
23616;BME280;11985;49.404;7.734;2022-07-30T01:57:31;97436.88;;;13.88;76.98
23616;BME280;11985;49.404;7.734;2022-07-30T01:59:39;97432.25;;;13.83;77.25
23616;BME280;11985;49.404;7.734;2022-07-30T02:01:42;97440.41;;;13.82;77.42
23616;BME280;11985;49.404;7.734;2022-07-30T02:03:45;97440.41;;;13.82;77.33
23616;BME280;11985;49.404;7.734;2022-07-30T02:05:50;97440.88;;;13.79;77.41
23616;BME280;11985;49.404;7.734;2022-07-30T02:08:00;97443.75;;;13.77;77.62
23616;BME280;11985;49.404;7.734;2022-07-30T02:10:07;97446.44;;;13.70;77.72
23616;BME280;11985;49.404;7.734;2022-07-30T02:12:13;97450.59;;;13.66;77.76
23616;BME280;11985;49.404;7.734;2022-07-30T02:14:39;97445.13;;;13.61;78.02
23616;BME280;11985;49.404;7.734;2022-07-30T02:16:44;97447.97;;;13.60;78.12
23616;BME280;11985;49.404;7.734;2022-07-30T02:18:53;97444.75;;;13.58;78.12
23616;BME280;11985;49.404;7.734;2022-07-30T02:21:00;97448.44;;;13.57;78.33
23616;BME280;11985;49.404;7.734;2022-07-30T02:23:05;97439.88;;;13.55;78.49
23616;BME280;11985;49.404;7.734;2022-07-30T02:25:15;97437.69;;;13.52;78.66
23616;BME280;11985;49.404;7.734;2022-07-30T02:27:23;97440.56;;;13.50;78.77
23616;BME280;11985;49.404;7.734;2022-07-30T02:29:29;97448.94;;;13.47;78.73
23616;BME280;11985;49.404;7.734;2022-07-30T02:31:35;97443.25;;;13.43;78.95
23616;BME280;11985;49.404;7.734;2022-07-30T02:33:42;97439.66;;;13.38;79.10
23616;BME280;11985;49.404;7.734;2022-07-30T02:35:47;97438.50;;;13.34;79.21
23616;BME280;11985;49.404;7.734;2022-07-30T02:37:53;97445.41;;;13.35;79.33
23616;BME280;11985;49.404;7.734;2022-07-30T02:39:56;97438.50;;;13.34;79.44
23616;BME280;11985;49.404;7.734;2022-07-30T02:41:59;97442.19;;;13.33;79.50
23616;BME280;11985;49.404;7.734;2022-07-30T02:44:03;97447.88;;;13.30;79.54
23616;BME280;11985;49.404;7.734;2022-07-30T02:46:06;97449.97;;;13.28;79.57
23616;BME280;11985;49.404;7.734;2022-07-30T02:48:10;97456.25;;;13.27;79.58
23616;BME280;11985;49.404;7.734;2022-07-30T02:50:15;97449.97;;;13.28;79.67
23616;BME280;11985;49.404;7.734;2022-07-30T02:52:18;97446.28;;;13.29;79.70
23616;BME280;11985;49.404;7.734;2022-07-30T02:54:27;97447.50;;;13.26;79.74
23616;BME280;11985;49.404;7.734;2022-07-30T02:56:30;97450.38;;;13.25;79.86
23616;BME280;11985;49.404;7.734;2022-07-30T02:58:34;97454.06;;;13.24;79.85
23616;BME280;11985;49.404;7.734;2022-07-30T03:00:39;97457.72;;;13.23;79.99
23616;BME280;11985;49.404;7.734;2022-07-30T03:02:42;97456.13;;;13.22;79.92
23616;BME280;11985;49.404;7.734;2022-07-30T03:04:46;97452.84;;;13.19;80.01
23616;BME280;11985;49.404;7.734;2022-07-30T03:06:50;97454.44;;;13.20;80.07
23616;BME280;11985;49.404;7.734;2022-07-30T03:08:55;97454.28;;;13.22;80.13
23616;BME280;11985;49.404;7.734;2022-07-30T03:10:58;97455.91;;;13.23;80.20
23616;BME280;11985;49.404;7.734;2022-07-30T03:13:01;97460.16;;;13.24;80.25
23616;BME280;11985;49.404;7.734;2022-07-30T03:15:05;97454.06;;;13.24;80.24
23616;BME280;11985;49.404;7.734;2022-07-30T03:17:07;97456.50;;;13.18;80.25
23616;BME280;11985;49.404;7.734;2022-07-30T03:19:12;97462.22;;;13.15;80.37
23616;BME280;11985;49.404;7.734;2022-07-30T03:21:18;97461.06;;;13.11;80.49
23616;BME280;11985;49.404;7.734;2022-07-30T03:23:22;97461.94;;;13.05;80.58
23616;BME280;11985;49.404;7.734;2022-07-30T03:25:26;97454.63;;;13.01;80.58
23616;BME280;11985;49.404;7.734;2022-07-30T03:27:29;97457.13;;;12.95;80.75
23616;BME280;11985;49.404;7.734;2022-07-30T03:29:31;97463.63;;;12.93;80.93
23616;BME280;11985;49.404;7.734;2022-07-30T03:31:34;97455.13;;;12.91;81.15
23616;BME280;11985;49.404;7.734;2022-07-30T03:33:36;97450.84;;;12.90;81.27
23616;BME280;11985;49.404;7.734;2022-07-30T03:35:40;97454.09;;;12.92;81.39
23616;BME280;11985;49.404;7.734;2022-07-30T03:37:46;97457.75;;;12.91;81.63
23616;BME280;11985;49.404;7.734;2022-07-30T03:39:48;97453.06;;;12.93;81.63
23616;BME280;11985;49.404;7.734;2022-07-30T03:41:50;97458.72;;;12.97;81.69
23616;BME280;11985;49.404;7.734;2022-07-30T03:43:54;97456.66;;;12.99;81.81
23616;BME280;11985;49.404;7.734;2022-07-30T03:45:56;97459.13;;;13.00;81.73
23616;BME280;11985;49.404;7.734;2022-07-30T03:47:59;97469.69;;;13.00;81.85
23616;BME280;11985;49.404;7.734;2022-07-30T03:50:00;97465.41;;;12.99;81.85
23616;BME280;11985;49.404;7.734;2022-07-30T03:52:02;97466.88;;;12.95;81.97
23616;BME280;11985;49.404;7.734;2022-07-30T03:54:06;97467.31;;;12.92;82.03
23616;BME280;11985;49.404;7.734;2022-07-30T03:56:12;97472.59;;;12.92;82.07
23616;BME280;11985;49.404;7.734;2022-07-30T03:58:14;97473.41;;;12.92;82.10
23616;BME280;11985;49.404;7.734;2022-07-30T04:00:16;97470.75;;;12.92;82.23
23616;BME280;11985;49.404;7.734;2022-07-30T04:02:17;97472.00;;;12.90;82.19
23616;BME280;11985;49.404;7.734;2022-07-30T04:04:19;97475.69;;;12.89;81.87
23616;BME280;11985;49.404;7.734;2022-07-30T04:06:21;97482.56;;;12.90;82.30
23616;BME280;11985;49.404;7.734;2022-07-30T04:08:23;97485.22;;;12.90;82.27
23616;BME280;11985;49.404;7.734;2022-07-30T04:10:26;97481.16;;;12.87;82.43
23616;BME280;11985;49.404;7.734;2022-07-30T04:12:28;97482.63;;;12.83;82.54
23616;BME280;11985;49.404;7.734;2022-07-30T04:14:37;97481.44;;;12.79;82.50
23616;BME280;11985;49.404;7.734;2022-07-30T04:16:43;97480.41;;;12.80;82.74
23616;BME280;11985;49.404;7.734;2022-07-30T04:18:49;97481.25;;;12.74;82.77
23616;BME280;11985;49.404;7.734;2022-07-30T04:20:52;97486.56;;;12.74;82.83
23616;BME280;11985;49.404;7.734;2022-07-30T04:22:56;97496.31;;;12.74;82.92
23616;BME280;11985;49.404;7.734;2022-07-30T04:25:00;97495.06;;;12.76;83.13
23616;BME280;11985;49.404;7.734;2022-07-30T04:27:04;97495.47;;;12.80;83.05
23616;BME280;11985;49.404;7.734;2022-07-30T04:29:08;97497.06;;;12.81;83.14
23616;BME280;11985;49.404;7.734;2022-07-30T04:31:10;97495.47;;;12.80;83.25
23616;BME280;11985;49.404;7.734;2022-07-30T04:33:11;97500.53;;;12.81;83.36
23616;BME280;11985;49.404;7.734;2022-07-30T04:35:13;97496.66;;;12.84;83.25
23616;BME280;11985;49.404;7.734;2022-07-30T04:37:15;97501.72;;;12.85;83.48
23616;BME280;11985;49.404;7.734;2022-07-30T04:39:17;97499.03;;;12.92;83.57
23616;BME280;11985;49.404;7.734;2022-07-30T04:41:19;97505.22;;;13.04;83.54
23616;BME280;11985;49.404;7.734;2022-07-30T04:43:22;97502.50;;;13.17;83.73
23616;BME280;11985;49.404;7.734;2022-07-30T04:45:24;97511.38;;;13.30;83.65
23616;BME280;11985;49.404;7.734;2022-07-30T04:47:25;97511.25;;;13.43;83.64
23616;BME280;11985;49.404;7.734;2022-07-30T04:49:27;97505.03;;;13.56;83.54
23616;BME280;11985;49.404;7.734;2022-07-30T04:51:33;97513.06;;;13.67;83.38
23616;BME280;11985;49.404;7.734;2022-07-30T04:53:35;97515.41;;;13.76;83.22
23616;BME280;11985;49.404;7.734;2022-07-30T04:55:40;97512.91;;;13.81;82.95
23616;BME280;11985;49.404;7.734;2022-07-30T04:57:45;97518.81;;;13.83;82.82
23616;BME280;11985;49.404;7.734;2022-07-30T04:59:49;97517.78;;;13.84;82.67
23616;BME280;11985;49.404;7.734;2022-07-30T05:01:51;97519.63;;;13.83;82.64
23616;BME280;11985;49.404;7.734;2022-07-30T05:03:54;97522.63;;;13.87;82.67
23616;BME280;11985;49.404;7.734;2022-07-30T05:05:56;97525.06;;;13.88;82.52
23616;BME280;11985;49.404;7.734;2022-07-30T05:08:00;97521.16;;;13.91;82.56
23616;BME280;11985;49.404;7.734;2022-07-30T05:10:02;97517.47;;;13.92;82.56
23616;BME280;11985;49.404;7.734;2022-07-30T05:12:04;97525.44;;;13.92;82.66
23616;BME280;11985;49.404;7.734;2022-07-30T05:14:06;97527.84;;;13.93;82.56
23616;BME280;11985;49.404;7.734;2022-07-30T05:16:09;97531.91;;;13.96;82.66
23616;BME280;11985;49.404;7.734;2022-07-30T05:18:10;97529.41;;;14.01;82.74
23616;BME280;11985;49.404;7.734;2022-07-30T05:20:12;97530.59;;;14.05;82.73
23616;BME280;11985;49.404;7.734;2022-07-30T05:22:14;97527.06;;;14.11;82.67
23616;BME280;11985;49.404;7.734;2022-07-30T05:24:16;97527.22;;;14.16;82.76
23616;BME280;11985;49.404;7.734;2022-07-30T05:26:18;97528.97;;;14.22;82.65
23616;BME280;11985;49.404;7.734;2022-07-30T05:28:20;97528.50;;;14.25;82.65
23616;BME280;11985;49.404;7.734;2022-07-30T05:30:25;97530.94;;;14.27;82.50
23616;BME280;11985;49.404;7.734;2022-07-30T05:32:28;97526.88;;;14.24;82.47
23616;BME280;11985;49.404;7.734;2022-07-30T05:34:30;97532.19;;;14.24;82.42
23616;BME280;11985;49.404;7.734;2022-07-30T05:36:31;97527.94;;;14.23;82.38
23616;BME280;11985;49.404;7.734;2022-07-30T05:38:33;97535.88;;;14.23;82.42
23616;BME280;11985;49.404;7.734;2022-07-30T05:40:37;97530.94;;;14.27;82.33
23616;BME280;11985;49.404;7.734;2022-07-30T05:42:39;97531.44;;;14.36;82.50
23616;BME280;11985;49.404;7.734;2022-07-30T05:44:44;97530.28;;;14.50;82.46
23616;BME280;11985;49.404;7.734;2022-07-30T05:46:45;97533.13;;;14.67;82.62
23616;BME280;11985;49.404;7.734;2022-07-30T05:48:49;97535.47;;;14.87;82.52
23616;BME280;11985;49.404;7.734;2022-07-30T05:50:51;97537.03;;;15.06;82.16
23616;BME280;11985;49.404;7.734;2022-07-30T05:52:53;97532.34;;;15.31;82.15
23616;BME280;11985;49.404;7.734;2022-07-30T05:54:56;97536.75;;;15.61;81.84
23616;BME280;11985;49.404;7.734;2022-07-30T05:56:57;97537.69;;;15.90;81.52
23616;BME280;11985;49.404;7.734;2022-07-30T05:58:59;97532.44;;;16.19;81.06
23616;BME280;11985;49.404;7.734;2022-07-30T06:01:01;97537.78;;;16.47;80.53
23616;BME280;11985;49.404;7.734;2022-07-30T06:03:02;97538.88;;;16.75;79.91
23616;BME280;11985;49.404;7.734;2022-07-30T06:05:06;97541.09;;;16.95;79.29
23616;BME280;11985;49.404;7.734;2022-07-30T06:07:08;97543.06;;;17.16;78.85
23616;BME280;11985;49.404;7.734;2022-07-30T06:09:09;97549.28;;;17.38;78.15
23616;BME280;11985;49.404;7.734;2022-07-30T06:11:11;97543.78;;;17.62;77.71
23616;BME280;11985;49.404;7.734;2022-07-30T06:13:12;97546.19;;;17.80;77.23
23616;BME280;11985;49.404;7.734;2022-07-30T06:15:14;97549.69;;;18.03;76.63
23616;BME280;11985;49.404;7.734;2022-07-30T06:17:16;97547.56;;;18.22;76.03
23616;BME280;11985;49.404;7.734;2022-07-30T06:19:17;97544.25;;;18.36;75.43
23616;BME280;11985;49.404;7.734;2022-07-30T06:21:20;97549.78;;;18.52;74.78
23616;BME280;11985;49.404;7.734;2022-07-30T06:23:22;97556.28;;;18.61;74.02
23616;BME280;11985;49.404;7.734;2022-07-30T06:25:24;97549.84;;;18.79;73.31
23616;BME280;11985;49.404;7.734;2022-07-30T06:27:26;97544.84;;;18.87;72.61
23616;BME280;11985;49.404;7.734;2022-07-30T06:29:27;97557.16;;;18.88;71.98
23616;BME280;11985;49.404;7.734;2022-07-30T06:31:29;97555.03;;;18.90;71.41
23616;BME280;11985;49.404;7.734;2022-07-30T06:33:30;97554.50;;;18.88;70.88
23616;BME280;11985;49.404;7.734;2022-07-30T06:35:32;97561.78;;;18.98;70.70
23616;BME280;11985;49.404;7.734;2022-07-30T06:37:35;97554.22;;;19.17;70.51
23616;BME280;11985;49.404;7.734;2022-07-30T06:39:37;97565.66;;;19.44;70.06
23616;BME280;11985;49.404;7.734;2022-07-30T06:41:38;97570.34;;;19.59;69.25
23616;BME280;11985;49.404;7.734;2022-07-30T06:43:40;97558.78;;;19.53;68.69
23616;BME280;11985;49.404;7.734;2022-07-30T06:45:41;97563.97;;;19.60;68.23
23616;BME280;11985;49.404;7.734;2022-07-30T06:47:43;97566.88;;;19.59;68.01
23616;BME280;11985;49.404;7.734;2022-07-30T06:49:45;97560.50;;;19.65;67.74
23616;BME280;11985;49.404;7.734;2022-07-30T06:51:47;97568.66;;;19.85;67.34
23616;BME280;11985;49.404;7.734;2022-07-30T06:53:50;97566.34;;;19.99;67.00
23616;BME280;11985;49.404;7.734;2022-07-30T06:55:51;97570.94;;;20.09;66.81
23616;BME280;11985;49.404;7.734;2022-07-30T06:57:53;97563.47;;;20.11;66.41
23616;BME280;11985;49.404;7.734;2022-07-30T06:59:55;97566.06;;;19.95;65.83
23616;BME280;11985;49.404;7.734;2022-07-30T07:01:56;97573.47;;;19.83;65.48
23616;BME280;11985;49.404;7.734;2022-07-30T07:03:58;97570.75;;;19.78;65.42
23616;BME280;11985;49.404;7.734;2022-07-30T07:05:59;97578.16;;;19.66;65.44
23616;BME280;11985;49.404;7.734;2022-07-30T07:08:01;97565.38;;;19.73;65.30
23616;BME280;11985;49.404;7.734;2022-07-30T07:10:04;97573.75;;;19.87;65.05
23616;BME280;11985;49.404;7.734;2022-07-30T07:12:06;97572.50;;;19.99;64.94
23616;BME280;11985;49.404;7.734;2022-07-30T07:14:08;97570.69;;;20.15;64.73
23616;BME280;11985;49.404;7.734;2022-07-30T07:16:09;97571.34;;;20.33;64.51
23616;BME280;11985;49.404;7.734;2022-07-30T07:18:11;97571.91;;;20.45;64.31
23616;BME280;11985;49.404;7.734;2022-07-30T07:20:14;97574.69;;;20.65;63.99
23616;BME280;11985;49.404;7.734;2022-07-30T07:22:16;97570.19;;;20.86;63.47
23616;BME280;11985;49.404;7.734;2022-07-30T07:24:17;97573.47;;;21.14;62.97
23616;BME280;11985;49.404;7.734;2022-07-30T07:26:20;97568.97;;;21.29;62.55
23616;BME280;11985;49.404;7.734;2022-07-30T07:28:22;97571.94;;;21.38;62.11
23616;BME280;11985;49.404;7.734;2022-07-30T07:30:23;97571.91;;;21.58;61.56
23616;BME280;11985;49.404;7.734;2022-07-30T07:32:25;97578.88;;;21.75;61.34
23616;BME280;11985;49.404;7.734;2022-07-30T07:34:26;97577.53;;;21.72;60.74
23616;BME280;11985;49.404;7.734;2022-07-30T07:36:28;97580.72;;;21.90;60.83
23616;BME280;11985;49.404;7.734;2022-07-30T07:38:30;97577.75;;;22.01;60.30
23616;BME280;11985;49.404;7.734;2022-07-30T07:40:31;97572.91;;;22.24;59.68
23616;BME280;11985;49.404;7.734;2022-07-30T07:42:34;97567.00;;;22.27;59.30
23616;BME280;11985;49.404;7.734;2022-07-30T07:44:36;97571.28;;;22.28;59.11
23616;BME280;11985;49.404;7.734;2022-07-30T07:46:38;97574.25;;;22.21;58.88
23616;BME280;11985;49.404;7.734;2022-07-30T07:48:39;97572.41;;;22.17;58.48
23616;BME280;11985;49.404;7.734;2022-07-30T07:50:41;97573.44;;;22.21;58.34
23616;BME280;11985;49.404;7.734;2022-07-30T07:52:42;97573.09;;;22.37;58.09
23616;BME280;11985;49.404;7.734;2022-07-30T07:54:44;97574.50;;;22.30;57.81
23616;BME280;11985;49.404;7.734;2022-07-30T07:56:45;97575.25;;;22.46;57.51
23616;BME280;11985;49.404;7.734;2022-07-30T07:58:49;97572.19;;;22.67;57.21
23616;BME280;11985;49.404;7.734;2022-07-30T08:00:53;97571.34;;;22.77;56.45
23616;BME280;11985;49.404;7.734;2022-07-30T08:02:55;97566.19;;;22.86;55.52
23616;BME280;11985;49.404;7.734;2022-07-30T08:04:56;97568.13;;;22.75;55.30
23616;BME280;11985;49.404;7.734;2022-07-30T08:06:58;97563.53;;;22.76;54.81
23616;BME280;11985;49.404;7.734;2022-07-30T08:09:00;97571.63;;;22.71;54.51
23616;BME280;11985;49.404;7.734;2022-07-30T08:11:01;97565.44;;;22.70;53.90
23616;BME280;11985;49.404;7.734;2022-07-30T08:13:03;97564.88;;;22.78;53.70
23616;BME280;11985;49.404;7.734;2022-07-30T08:15:07;97572.13;;;22.88;53.40
23616;BME280;11985;49.404;7.734;2022-07-30T08:17:09;97569.59;;;23.07;53.04
23616;BME280;11985;49.404;7.734;2022-07-30T08:19:11;97561.16;;;23.18;52.30
23616;BME280;11985;49.404;7.734;2022-07-30T08:21:12;97562.75;;;23.25;52.22
23616;BME280;11985;49.404;7.734;2022-07-30T08:23:14;97561.78;;;23.44;51.64
23616;BME280;11985;49.404;7.734;2022-07-30T08:25:17;97559.91;;;23.45;51.49
23616;BME280;11985;49.404;7.734;2022-07-30T08:27:19;97562.56;;;23.50;51.09
23616;BME280;11985;49.404;7.734;2022-07-30T08:29:20;97561.53;;;23.41;51.08
23616;BME280;11985;49.404;7.734;2022-07-30T08:31:23;97564.06;;;23.61;51.03
23616;BME280;11985;49.404;7.734;2022-07-30T08:33:25;97567.94;;;23.50;50.63
23616;BME280;11985;49.404;7.734;2022-07-30T08:35:26;97559.00;;;23.21;50.39
23616;BME280;11985;49.404;7.734;2022-07-30T08:37:28;97569.53;;;23.17;50.52
23616;BME280;11985;49.404;7.734;2022-07-30T08:39:30;97561.47;;;23.17;50.26
23616;BME280;11985;49.404;7.734;2022-07-30T08:41:31;97562.97;;;22.89;49.96
23616;BME280;11985;49.404;7.734;2022-07-30T08:43:34;97569.97;;;22.80;49.74
23616;BME280;11985;49.404;7.734;2022-07-30T08:45:37;97565.19;;;22.77;49.88
23616;BME280;11985;49.404;7.734;2022-07-30T08:47:44;97567.25;;;22.95;50.03
23616;BME280;11985;49.404;7.734;2022-07-30T08:49:46;97569.25;;;23.13;49.53
23616;BME280;11985;49.404;7.734;2022-07-30T08:51:49;97565.09;;;23.31;49.26
23616;BME280;11985;49.404;7.734;2022-07-30T08:53:51;97563.69;;;23.44;49.08
23616;BME280;11985;49.404;7.734;2022-07-30T08:55:53;97559.06;;;23.50;48.35
23616;BME280;11985;49.404;7.734;2022-07-30T08:57:55;97562.94;;;23.33;48.14
23616;BME280;11985;49.404;7.734;2022-07-30T08:59:57;97557.06;;;23.26;48.00
23616;BME280;11985;49.404;7.734;2022-07-30T09:01:58;97555.16;;;23.32;48.10
23616;BME280;11985;49.404;7.734;2022-07-30T09:04:01;97556.50;;;23.34;47.75
23616;BME280;11985;49.404;7.734;2022-07-30T09:06:04;97563.09;;;23.47;47.16
23616;BME280;11985;49.404;7.734;2022-07-30T09:08:06;97561.38;;;23.66;47.25
23616;BME280;11985;49.404;7.734;2022-07-30T09:10:09;97568.25;;;23.78;46.77
23616;BME280;11985;49.404;7.734;2022-07-30T09:12:33;97568.72;;;23.85;46.48
23616;BME280;11985;49.404;7.734;2022-07-30T09:14:35;97559.13;;;23.74;46.05
23616;BME280;11985;49.404;7.734;2022-07-30T09:16:36;97565.78;;;23.81;45.97
23616;BME280;11985;49.404;7.734;2022-07-30T09:18:41;97568.81;;;23.75;46.06
23616;BME280;11985;49.404;7.734;2022-07-30T09:20:45;97572.03;;;23.77;46.05
23616;BME280;11985;49.404;7.734;2022-07-30T09:22:48;97571.03;;;23.96;46.20
23616;BME280;11985;49.404;7.734;2022-07-30T09:24:50;97562.41;;;24.23;45.67
23616;BME280;11985;49.404;7.734;2022-07-30T09:26:52;97566.25;;;24.41;45.53
23616;BME280;11985;49.404;7.734;2022-07-30T09:28:54;97561.31;;;24.48;45.11
23616;BME280;11985;49.404;7.734;2022-07-30T09:30:56;97560.75;;;24.52;45.01
23616;BME280;11985;49.404;7.734;2022-07-30T09:32:58;97564.28;;;24.47;44.69
23616;BME280;11985;49.404;7.734;2022-07-30T09:35:10;97560.31;;;24.44;44.37
23616;BME280;11985;49.404;7.734;2022-07-30T09:37:17;97568.97;;;24.12;44.04
23616;BME280;11985;49.404;7.734;2022-07-30T09:39:30;97578.34;;;23.91;43.98
23616;BME280;11985;49.404;7.734;2022-07-30T09:41:34;97570.91;;;23.83;44.03
23616;BME280;11985;49.404;7.734;2022-07-30T09:43:44;97568.63;;;23.95;44.05
23616;BME280;11985;49.404;7.734;2022-07-30T09:45:50;97565.53;;;24.07;43.64
23616;BME280;11985;49.404;7.734;2022-07-30T09:47:52;97568.75;;;24.33;43.58
23616;BME280;11985;49.404;7.734;2022-07-30T09:50:01;97570.72;;;24.51;43.50
23616;BME280;11985;49.404;7.734;2022-07-30T09:52:03;97576.72;;;24.86;43.40
23616;BME280;11985;49.404;7.734;2022-07-30T09:54:07;97567.41;;;24.97;42.84
23616;BME280;11985;49.404;7.734;2022-07-30T09:56:23;97576.34;;;24.73;42.57
23616;BME280;11985;49.404;7.734;2022-07-30T09:58:37;97576.41;;;24.20;42.56
23616;BME280;11985;49.404;7.734;2022-07-30T10:00:40;97579.13;;;23.91;42.65
23616;BME280;11985;49.404;7.734;2022-07-30T10:02:42;97573.63;;;23.78;42.54
23616;BME280;11985;49.404;7.734;2022-07-30T10:04:44;97566.75;;;23.66;42.88
23616;BME280;11985;49.404;7.734;2022-07-30T10:06:46;97580.28;;;23.51;42.60
23616;BME280;11985;49.404;7.734;2022-07-30T10:08:49;97567.94;;;23.50;42.79
23616;BME280;11985;49.404;7.734;2022-07-30T10:10:53;97566.16;;;23.69;42.79
23616;BME280;11985;49.404;7.734;2022-07-30T10:12:58;97551.34;;;24.01;42.54
23616;BME280;11985;49.404;7.734;2022-07-30T10:15:01;97558.09;;;24.22;42.43
23616;BME280;11985;49.404;7.734;2022-07-30T10:17:05;97562.09;;;24.25;42.01
23616;BME280;11985;49.404;7.734;2022-07-30T10:19:07;97557.06;;;24.18;42.08
23616;BME280;11985;49.404;7.734;2022-07-30T10:21:09;97553.00;;;24.21;41.85
23616;BME280;11985;49.404;7.734;2022-07-30T10:23:11;97559.69;;;24.23;41.73
23616;BME280;11985;49.404;7.734;2022-07-30T10:25:17;97553.53;;;24.23;41.62
23616;BME280;11985;49.404;7.734;2022-07-30T10:27:21;97550.72;;;24.33;41.47
23616;BME280;11985;49.404;7.734;2022-07-30T10:29:23;97557.63;;;24.63;41.22
23616;BME280;11985;49.404;7.734;2022-07-30T10:31:25;97545.19;;;24.67;40.83
23616;BME280;11985;49.404;7.734;2022-07-30T10:33:31;97552.19;;;24.68;40.69
23616;BME280;11985;49.404;7.734;2022-07-30T10:35:32;97550.66;;;24.62;40.42
23616;BME280;11985;49.404;7.734;2022-07-30T10:37:34;97544.34;;;24.48;40.50
23616;BME280;11985;49.404;7.734;2022-07-30T10:39:38;97545.25;;;24.62;40.52
23616;BME280;11985;49.404;7.734;2022-07-30T10:41:47;97545.13;;;24.72;40.27
23616;BME280;11985;49.404;7.734;2022-07-30T10:46:35;97546.84;;;24.63;40.03
23616;BME280;11985;49.404;7.734;2022-07-30T10:48:42;97547.78;;;24.54;40.08
23616;BME280;11985;49.404;7.734;2022-07-30T10:50:52;97543.34;;;24.44;40.06
23616;BME280;11985;49.404;7.734;2022-07-30T10:52:56;97546.25;;;24.23;39.89
23616;BME280;11985;49.404;7.734;2022-07-30T10:54:58;97540.84;;;24.23;40.04
23616;BME280;11985;49.404;7.734;2022-07-30T10:57:02;97543.50;;;24.53;40.02